createdAt,value
2019-04-22T00:02:10.890Z,98115.47
2019-04-22T00:04:55.087Z,98115.00
2019-04-22T00:07:41.979Z,98111.88
2019-04-22T00:10:19.315Z,98111.31
2019-04-22T00:12:52.928Z,98109.84
2019-04-22T00:15:29.206Z,98109.23
2019-04-22T00:18:07.685Z,98104.09
2019-04-22T00:20:42.310Z,98104.09
2019-04-22T00:23:12.904Z,98104.39
2019-04-22T00:25:57.136Z,98109.52
2019-04-22T00:28:33.417Z,98097.36
2019-04-22T00:31:08.829Z,98102.84
2019-04-22T00:33:40.510Z,98097.42
2019-04-22T00:36:23.300Z,98101.47
2019-04-22T00:38:59.218Z,98096.97
2019-04-22T00:41:28.581Z,98093.96
2019-04-22T00:44:15.721Z,98099.72
2019-04-22T00:46:43.059Z,98093.28
2019-04-22T00:50:01.118Z,98092.58
2019-04-22T00:51:58.336Z,98090.85
2019-04-22T00:54:30.996Z,98098.79
2019-04-22T00:57:05.429Z,98093.55
2019-04-22T00:59:40.401Z,98092.66
2019-04-22T01:02:13.158Z,98089.80
2019-04-22T01:04:49.052Z,98091.12
2019-04-22T01:07:17.740Z,98087.87
2019-04-22T01:10:02.602Z,98084.11
2019-04-22T01:12:34.620Z,98079.39
2019-04-22T01:15:07.363Z,98084.79
2019-04-22T01:17:44.978Z,98077.30
2019-04-22T01:20:29.340Z,98078.46
2019-04-22T01:22:54.234Z,98073.27
2019-04-22T01:25:24.853Z,98075.33
2019-04-22T01:27:58.439Z,98069.06
2019-04-22T01:30:27.907Z,98076.45
2019-04-22T01:32:57.924Z,98067.98
2019-04-22T01:35:41.120Z,98067.11
2019-04-22T01:38:22.314Z,98064.33
2019-04-22T01:41:07.064Z,98066.56
2019-04-22T01:43:42.126Z,98058.61
2019-04-22T01:46:16.981Z,98060.20
2019-04-22T01:48:47.342Z,98060.98
2019-04-22T01:51:37.406Z,98057.77
2019-04-22T01:54:06.561Z,98054.66
2019-04-22T01:56:33.344Z,98053.06
2019-04-22T01:59:03.073Z,98049.70
2019-04-22T02:01:55.127Z,98047.98
2019-04-22T02:04:26.229Z,98048.66
2019-04-22T02:07:00.147Z,98042.64
2019-04-22T02:09:38.009Z,98039.22
2019-04-22T02:12:08.015Z,98035.53
2019-04-22T02:14:47.986Z,98036.61
2019-04-22T02:17:21.030Z,98037.25
2019-04-22T02:19:53.312Z,98035.34
2019-04-22T02:22:41.736Z,98031.98
2019-04-22T02:24:59.097Z,98033.95
2019-04-22T02:27:39.122Z,98028.12
2019-04-22T02:30:08.470Z,98033.19
2019-04-22T02:33:03.794Z,98030.00
2019-04-22T02:35:37.644Z,98026.53
2019-04-22T02:38:11.888Z,98027.48
2019-04-22T02:40:50.731Z,98014.85
2019-04-22T02:43:12.541Z,98023.02
2019-04-22T02:48:35.256Z,98017.73
2019-04-22T02:51:02.826Z,98014.58
2019-04-22T02:54:13.935Z,98012.66
2019-04-22T02:58:55.022Z,98005.55
2019-04-22T03:06:30.788Z,97996.37
2019-04-22T03:09:16.371Z,97986.33
2019-04-22T03:16:43.241Z,97991.91
2019-04-22T03:19:40.409Z,97998.41
2019-04-22T03:24:38.159Z,97985.67
2019-04-22T03:27:02.789Z,97986.14
2019-04-22T03:33:09.237Z,97980.16
2019-04-22T03:40:48.791Z,97983.47
2019-04-22T03:45:35.506Z,97973.16
2019-04-22T03:48:17.584Z,97964.83
2019-04-22T03:50:47.212Z,97973.56
2019-04-22T03:53:38.281Z,97965.20
2019-04-22T03:56:16.100Z,97966.61
2019-04-22T03:58:40.451Z,97963.90
2019-04-22T04:03:51.342Z,97967.67
2019-04-22T04:09:04.577Z,97961.69
2019-04-22T04:11:45.176Z,97962.66
2019-04-22T04:14:12.300Z,97956.77
2019-04-22T04:16:47.675Z,97948.95
2019-04-22T04:19:30.798Z,97947.77
2019-04-22T04:21:46.976Z,97943.73
2019-04-22T04:24:44.027Z,97938.98
2019-04-22T04:27:34.995Z,97940.00
2019-04-22T04:32:26.913Z,97942.83
2019-04-22T04:35:03.171Z,97939.39
2019-04-22T04:37:40.975Z,97938.42
2019-04-22T04:42:43.631Z,97939.27
2019-04-22T04:55:28.726Z,97936.21
2019-04-22T04:58:18.306Z,97930.98
2019-04-22T05:03:25.374Z,97935.07
2019-04-22T05:05:47.809Z,97936.55
2019-04-22T05:08:47.226Z,97947.69
2019-04-22T05:11:11.421Z,97936.30
2019-04-22T05:13:54.990Z,97942.70
2019-04-22T05:18:46.553Z,97937.41
2019-04-22T05:21:17.887Z,97942.03
2019-04-22T05:23:52.389Z,97938.14
2019-04-22T05:26:29.323Z,97936.97
2019-04-22T05:29:08.051Z,97934.67
2019-04-22T05:31:38.674Z,97945.03
2019-04-22T05:36:48.033Z,97933.70
2019-04-22T05:39:16.839Z,97934.27
2019-04-22T05:41:58.670Z,97942.55
2019-04-22T05:44:39.363Z,97931.70
2019-04-22T05:47:08.055Z,97933.56
2019-04-22T05:49:36.968Z,97930.02
2019-04-22T05:52:19.292Z,97932.89
2019-04-22T05:54:59.509Z,97927.41
2019-04-22T05:57:45.014Z,97931.45
2019-04-22T06:00:08.164Z,97929.88
2019-04-22T06:02:56.626Z,97926.31
2019-04-22T06:05:20.788Z,97934.53
2019-04-22T06:07:52.718Z,97930.00
2019-04-22T06:10:39.308Z,97924.94
2019-04-22T06:13:00.907Z,97924.41
2019-04-22T06:15:37.523Z,97918.13
2019-04-22T06:18:25.438Z,97913.28
2019-04-22T06:21:03.986Z,97914.92
2019-04-22T06:26:29.218Z,97912.66
2019-04-22T06:34:02.299Z,97911.38
2019-04-22T06:36:37.862Z,97905.73
2019-04-22T06:39:10.487Z,97901.09
2019-04-22T06:44:18.717Z,97898.93
2019-04-22T06:46:55.213Z,97893.39
2019-04-22T06:49:31.907Z,97882.02
2019-04-22T06:52:07.782Z,97879.97
2019-04-22T06:54:42.450Z,97884.05
2019-04-22T06:57:11.557Z,97876.36
2019-04-22T06:59:52.000Z,97876.14
2019-04-22T07:02:26.694Z,97871.82
2019-04-22T07:05:02.918Z,97864.84
2019-04-22T07:07:31.768Z,97857.02
2019-04-22T07:10:26.470Z,97854.95
2019-04-22T07:12:46.602Z,97854.66
2019-04-22T07:15:35.768Z,97855.30
2019-04-22T07:17:55.173Z,97841.75
2019-04-22T07:20:31.663Z,97844.19
2019-04-22T07:23:07.952Z,97844.83
2019-04-22T07:25:41.215Z,97837.31
2019-04-22T07:28:15.576Z,97839.92
2019-04-22T07:30:53.384Z,97836.95
2019-04-22T07:33:34.335Z,97834.03
2019-04-22T07:36:25.742Z,97833.44
2019-04-22T07:38:49.170Z,97828.98
2019-04-22T07:41:12.425Z,97826.67
2019-04-22T07:44:08.384Z,97827.59
2019-04-22T07:46:18.613Z,97819.70
2019-04-22T07:48:57.625Z,97817.75
2019-04-22T07:51:32.657Z,97816.64
2019-04-22T07:54:06.504Z,97807.08
2019-04-22T07:56:45.349Z,97800.97
2019-04-22T07:59:22.213Z,97798.56
2019-04-22T08:01:56.290Z,97795.84
2019-04-22T08:04:50.063Z,97797.50
2019-04-22T08:07:10.712Z,97796.36
2019-04-22T08:09:58.149Z,97797.36
2019-04-22T08:12:18.873Z,97794.73
2019-04-22T08:14:53.691Z,97791.97
2019-04-22T08:20:09.262Z,97784.09
2019-04-22T08:22:39.487Z,97779.42
2019-04-22T08:25:14.569Z,97769.06
2019-04-22T08:27:50.800Z,97766.64
2019-04-22T08:30:28.972Z,97762.70
2019-04-22T08:33:05.049Z,97761.83
2019-04-22T08:35:52.238Z,97761.70
2019-04-22T08:38:11.465Z,97758.24
2019-04-22T08:41:09.204Z,97749.88
2019-04-22T08:43:37.793Z,97752.27
2019-04-22T08:46:10.938Z,97744.08
2019-04-22T08:48:47.820Z,97744.43
2019-04-22T08:51:25.002Z,97739.02
2019-04-22T08:56:35.101Z,97739.83
2019-04-22T08:59:11.037Z,97729.20
2019-04-22T09:01:38.143Z,97721.08
2019-04-22T09:04:11.843Z,97728.83
2019-04-22T09:09:27.027Z,97713.23
2019-04-22T09:17:18.288Z,97710.09
2019-04-22T09:19:47.621Z,97706.71
2019-04-22T09:22:21.917Z,97713.30
2019-04-22T09:25:13.499Z,97691.80
2019-04-22T09:27:39.357Z,97685.75
2019-04-22T09:30:04.781Z,97693.63
2019-04-22T09:32:45.565Z,97682.70
2019-04-22T09:35:20.043Z,97679.28
2019-04-22T09:37:58.831Z,97677.17
2019-04-22T09:40:21.978Z,97669.97
2019-04-22T09:43:17.180Z,97659.34
2019-04-22T09:45:34.402Z,97669.10
2019-04-22T09:48:16.634Z,97665.25
2019-04-22T09:50:48.097Z,97653.39
2019-04-22T09:53:22.756Z,97656.47
2019-04-22T09:55:56.771Z,97652.86
2019-04-22T09:58:39.414Z,97652.77
2019-04-22T10:01:22.775Z,97643.40
2019-04-22T10:06:35.348Z,97629.03
2019-04-22T10:09:27.178Z,97636.81
2019-04-22T10:14:21.884Z,97630.17
2019-04-22T10:16:51.407Z,97620.94
2019-04-22T10:19:24.962Z,97616.53
2019-04-22T10:22:05.240Z,97613.81
2019-04-22T10:24:41.691Z,97611.48
2019-04-22T10:27:18.627Z,97602.21
2019-04-22T10:29:58.280Z,97597.11
2019-04-22T10:32:20.563Z,97594.98
2019-04-22T10:34:48.602Z,97598.24
2019-04-22T10:37:19.019Z,97594.12
2019-04-22T10:39:56.617Z,97586.19
2019-04-22T10:42:27.043Z,97585.59
2019-04-22T10:45:01.099Z,97584.30
2019-04-22T10:47:36.066Z,97581.08
2019-04-22T10:50:12.375Z,97575.26
2019-04-22T10:52:47.709Z,97565.54
2019-04-22T10:55:21.400Z,97562.41
2019-04-22T10:57:56.813Z,97558.74
2019-04-22T11:00:31.629Z,97559.22
2019-04-22T11:03:06.633Z,97554.47
2019-04-22T11:05:40.042Z,97548.53
2019-04-22T11:08:22.571Z,97536.63
2019-04-22T11:11:04.705Z,97541.72
2019-04-22T11:13:29.439Z,97534.84
2019-04-22T11:16:03.489Z,97536.74
2019-04-22T11:18:37.809Z,97530.36
2019-04-22T11:21:11.607Z,97527.17
2019-04-22T11:23:44.892Z,97530.67
2019-04-22T11:26:17.800Z,97519.77
2019-04-22T11:28:55.972Z,97518.95
2019-04-22T11:31:30.575Z,97515.39
2019-04-22T11:34:08.915Z,97510.66
2019-04-22T11:36:43.089Z,97519.92
2019-04-22T11:39:17.002Z,97510.41
2019-04-22T11:41:50.141Z,97509.22
2019-04-22T11:44:23.593Z,97500.94
2019-04-22T11:46:57.046Z,97500.94
2019-04-22T11:49:30.311Z,97493.00
2019-04-22T11:52:05.510Z,97488.95
2019-04-22T11:54:38.817Z,97485.34
2019-04-22T11:57:12.882Z,97487.50
2019-04-22T11:59:46.950Z,97488.37
2019-04-22T12:02:23.292Z,97486.20
2019-04-22T12:04:56.200Z,97472.69
2019-04-22T12:07:31.712Z,97475.34
2019-04-22T12:10:17.893Z,97461.84
2019-04-22T12:12:39.679Z,97464.77
2019-04-22T12:15:14.760Z,97455.87
2019-04-22T12:17:48.919Z,97454.17
2019-04-22T12:20:23.421Z,97456.49
2019-04-22T12:22:59.262Z,97455.56
2019-04-22T12:25:43.314Z,97449.05
2019-04-22T12:28:06.811Z,97431.98
2019-04-22T12:30:41.513Z,97441.04
2019-04-22T12:33:17.057Z,97437.15
2019-04-22T12:35:50.535Z,97437.75
2019-04-22T12:38:24.098Z,97434.75
2019-04-22T12:41:01.233Z,97430.97
2019-04-22T12:43:33.669Z,97416.13
2019-04-22T12:46:07.976Z,97416.25
2019-04-22T12:48:41.542Z,97414.59
2019-04-22T12:51:15.312Z,97405.70
2019-04-22T12:53:48.957Z,97402.27
2019-04-22T12:56:21.881Z,97396.91
2019-04-22T12:58:55.882Z,97389.43
2019-04-22T13:01:31.283Z,97384.91
2019-04-22T13:04:09.378Z,97376.07
2019-04-22T13:06:41.664Z,97372.12
2019-04-22T13:09:17.608Z,97365.39
2019-04-22T13:11:50.902Z,97368.60
2019-04-22T13:14:23.499Z,97359.56
2019-04-22T13:16:57.767Z,97362.63
2019-04-22T13:19:32.084Z,97350.40
2019-04-22T13:22:05.086Z,97353.91
2019-04-22T13:24:39.780Z,97362.40
2019-04-22T13:27:17.108Z,97347.06
2019-04-22T13:29:55.340Z,97349.82
2019-04-22T13:32:28.959Z,97339.53
2019-04-22T13:35:03.666Z,97336.11
2019-04-22T13:37:39.030Z,97332.20
2019-04-22T13:40:15.075Z,97331.26
2019-04-22T13:42:49.183Z,97318.32
2019-04-22T13:45:23.601Z,97327.45
2019-04-22T13:48:16.877Z,97312.74
2019-04-22T13:51:05.713Z,97327.86
2019-04-22T13:53:44.811Z,97324.72
2019-04-22T13:56:00.738Z,97313.75
2019-04-22T13:58:31.455Z,97299.34
2019-04-22T14:00:54.294Z,97297.94
2019-04-22T14:03:48.953Z,97300.45
2019-04-22T14:06:22.677Z,97288.41
2019-04-22T14:08:56.268Z,97284.16
2019-04-22T14:11:41.569Z,97291.23
2019-04-22T14:14:06.972Z,97290.88
2019-04-22T14:16:40.826Z,97288.98
2019-04-22T14:19:14.071Z,97275.86
2019-04-22T14:21:47.567Z,97280.79
2019-04-22T14:24:21.711Z,97273.71
2019-04-22T14:27:09.812Z,97274.50
2019-04-22T14:29:31.318Z,97261.44
2019-04-22T14:32:12.764Z,97261.09
2019-04-22T14:34:39.330Z,97257.94
2019-04-22T14:37:16.403Z,97246.64
2019-04-22T14:39:49.724Z,97243.55
2019-04-22T14:42:44.047Z,97245.28
2019-04-22T14:45:32.687Z,97240.10
2019-04-22T14:48:00.872Z,97239.09
2019-04-22T14:50:32.792Z,97229.25
2019-04-22T14:53:05.433Z,97228.98
2019-04-22T14:55:25.954Z,97229.32
2019-04-22T14:57:56.901Z,97211.78
2019-04-22T15:00:31.617Z,97223.73
2019-04-22T15:03:05.891Z,97219.35
2019-04-22T15:05:40.059Z,97219.02
2019-04-22T15:08:13.237Z,97217.73
2019-04-22T15:10:46.383Z,97218.31
2019-04-22T15:13:21.228Z,97220.63
2019-04-22T15:16:25.828Z,97212.30
2019-04-22T15:19:17.872Z,97214.63
2019-04-22T15:21:52.520Z,97211.11
2019-04-22T15:24:27.545Z,97210.54
2019-04-22T15:27:01.269Z,97205.86
2019-04-22T15:29:35.679Z,97201.84
2019-04-22T15:32:09.380Z,97203.62
2019-04-22T15:34:41.798Z,97201.89
2019-04-22T15:37:15.961Z,97202.98
2019-04-22T15:39:49.837Z,97198.59
2019-04-22T15:42:28.197Z,97204.66
2019-04-22T15:44:58.033Z,97197.67
2019-04-22T15:47:31.316Z,97193.42
2019-04-22T15:50:05.990Z,97198.55
2019-04-22T15:52:47.877Z,97190.48
2019-04-22T15:55:14.757Z,97186.95
2019-04-22T15:57:47.971Z,97191.97
2019-04-22T16:00:36.695Z,97196.89
2019-04-22T16:02:57.809Z,97185.03
2019-04-22T16:05:32.141Z,97189.59
2019-04-22T16:08:06.649Z,97190.08
2019-04-22T16:10:39.838Z,97180.66
2019-04-22T16:13:19.169Z,97182.30
2019-04-22T16:15:48.992Z,97182.17
2019-04-22T16:18:46.376Z,97181.94
2019-04-22T16:21:34.911Z,97180.14
2019-04-22T16:24:22.547Z,97183.72
2019-04-22T16:27:00.305Z,97189.67
2019-04-22T16:29:34.031Z,97172.53
2019-04-22T16:32:07.351Z,97169.23
2019-04-22T16:34:42.346Z,97169.83
2019-04-22T16:37:14.993Z,97169.16
2019-04-22T16:39:50.291Z,97168.02
2019-04-22T16:42:31.658Z,97171.66
2019-04-22T16:44:57.960Z,97169.76
2019-04-22T16:47:31.474Z,97154.67
2019-04-22T16:50:05.737Z,97158.58
2019-04-22T16:52:39.851Z,97158.50
2019-04-22T16:55:14.719Z,97156.53
2019-04-22T16:57:48.231Z,97159.70
2019-04-22T17:00:22.650Z,97157.06
2019-04-22T17:03:34.291Z,97155.69
2019-04-22T17:06:19.508Z,97156.73
2019-04-22T17:08:52.951Z,97153.53
2019-04-22T17:11:25.808Z,97163.82
2019-04-22T17:13:59.391Z,97157.05
2019-04-22T17:16:34.791Z,97153.25
2019-04-22T17:19:09.048Z,97148.60
2019-04-22T17:21:43.646Z,97156.69
2019-04-22T17:24:17.468Z,97156.08
2019-04-22T17:26:52.574Z,97159.36
2019-04-22T17:29:26.367Z,97160.97
2019-04-22T17:32:06.342Z,97160.52
2019-04-22T17:34:35.776Z,97161.30
2019-04-22T17:37:15.461Z,97172.32
2019-04-22T17:39:57.319Z,97163.30
2019-04-22T17:42:36.275Z,97166.19
2019-04-22T17:45:33.953Z,97168.79
2019-04-22T17:48:27.681Z,97171.29
2019-04-22T17:51:14.506Z,97168.16
2019-04-22T17:53:40.376Z,97171.23
2019-04-22T17:56:13.827Z,97172.66
2019-04-22T17:58:51.162Z,97188.67
2019-04-22T18:01:28.152Z,97188.67
2019-04-22T18:03:47.408Z,97185.45
2019-04-22T18:06:44.092Z,97190.88
2019-04-22T18:09:12.855Z,97184.27
2019-04-22T18:11:51.034Z,97185.48
2019-04-22T18:14:35.006Z,97189.77
2019-04-22T18:17:00.167Z,97185.08
2019-04-22T18:19:32.187Z,97189.50
2019-04-22T18:22:01.136Z,97188.83
2019-04-22T18:24:28.119Z,97196.98
2019-04-22T18:27:31.946Z,97193.80
2019-04-22T18:29:47.083Z,97207.03
2019-04-22T18:32:16.789Z,97199.19
2019-04-22T18:34:50.362Z,97207.23
2019-04-22T18:37:31.361Z,97214.75
2019-04-22T18:40:08.000Z,97215.39
2019-04-22T18:42:49.541Z,97217.16
2019-04-22T18:45:37.320Z,97220.66
2019-04-22T18:47:49.148Z,97229.30
2019-04-22T18:50:41.483Z,97224.95
2019-04-22T18:53:23.378Z,97226.89
2019-04-22T18:55:49.243Z,97227.09
2019-04-22T18:58:21.265Z,97219.23
2019-04-22T19:00:51.316Z,97233.58
2019-04-22T19:03:30.506Z,97232.52
2019-04-22T19:06:36.827Z,97237.79
2019-04-22T19:09:03.208Z,97238.23
2019-04-22T19:11:35.541Z,97246.64
2019-04-22T19:14:25.316Z,97243.73
2019-04-22T19:16:47.934Z,97245.97
2019-04-22T19:21:51.413Z,97239.53
2019-04-22T19:24:30.446Z,97240.25
2019-04-22T19:27:23.631Z,97239.30
2019-04-22T19:29:51.350Z,97242.03
2019-04-22T19:32:19.449Z,97246.75
2019-04-22T19:34:53.061Z,97250.31
2019-04-22T19:37:32.693Z,97245.09
2019-04-22T19:40:30.621Z,97248.10
2019-04-22T19:45:24.479Z,97249.00
2019-04-22T19:48:03.373Z,97247.07
2019-04-22T19:50:36.761Z,97240.14
2019-04-22T19:53:19.363Z,97233.11
2019-04-22T19:55:47.000Z,97237.22
2019-04-22T19:58:24.101Z,97235.53
2019-04-22T20:01:16.167Z,97233.63
2019-04-22T20:04:28.193Z,97238.09
2019-04-22T20:07:05.133Z,97239.75
2019-04-22T20:09:46.695Z,97237.30
2019-04-22T20:12:10.589Z,97237.89
2019-04-22T20:14:49.672Z,97234.34
2019-04-22T20:17:26.722Z,97238.47
2019-04-22T20:20:06.346Z,97239.98
2019-04-22T20:22:48.073Z,97241.53
2019-04-22T20:25:16.765Z,97235.89
2019-04-22T20:28:04.120Z,97232.58
2019-04-22T20:30:42.461Z,97233.08
2019-04-22T20:33:13.862Z,97227.22
2019-04-22T20:35:50.594Z,97225.79
2019-04-22T20:38:18.481Z,97223.95
2019-04-22T20:40:55.270Z,97223.95
2019-04-22T20:43:44.889Z,97230.66
2019-04-22T20:46:10.773Z,97231.48
2019-04-22T20:48:48.425Z,97225.52
2019-04-22T20:51:28.133Z,97233.23
2019-04-22T20:54:02.741Z,97229.23
2019-04-22T20:56:30.035Z,97223.77
2019-04-22T20:59:08.597Z,97221.91
2019-04-22T21:01:43.140Z,97217.41
2019-04-22T21:04:54.611Z,97219.34
2019-04-22T21:11:58.575Z,97215.59
2019-04-22T21:16:04.039Z,97207.72
2019-04-22T21:18:44.730Z,97206.88
2019-04-22T21:21:25.170Z,97208.79
2019-04-22T21:23:54.517Z,97204.99
2019-04-22T21:26:33.893Z,97203.76
2019-04-22T21:29:07.252Z,97205.50
2019-04-22T21:31:48.275Z,97198.89
2019-04-22T21:34:18.982Z,97199.59
2019-04-22T21:37:02.564Z,97198.06
2019-04-22T21:39:27.466Z,97190.66
2019-04-22T21:42:09.103Z,97186.02
2019-04-22T21:44:38.119Z,97183.34
2019-04-22T21:47:20.512Z,97171.86
2019-04-22T21:50:07.867Z,97173.87
2019-04-22T21:52:27.821Z,97167.99
2019-04-22T21:55:05.963Z,97157.52
2019-04-22T21:57:50.525Z,97152.78
2019-04-22T22:00:31.037Z,97151.94
2019-04-22T22:02:58.535Z,97147.41
2019-04-22T22:05:28.756Z,97140.33
2019-04-22T22:07:55.874Z,97146.50
2019-04-22T22:10:40.294Z,97145.47
2019-04-22T22:13:17.120Z,97139.73
2019-04-22T22:15:51.070Z,97145.37
2019-04-22T22:18:21.398Z,97138.26
2019-04-22T22:21:19.424Z,97134.95
2019-04-22T22:23:40.908Z,97139.61
2019-04-22T22:26:06.898Z,97135.47
2019-04-22T22:29:01.965Z,97129.08
2019-04-22T22:31:33.205Z,97130.86
2019-04-22T22:34:03.688Z,97130.98
2019-04-22T22:36:32.008Z,97120.61
2019-04-22T22:39:05.675Z,97124.70
2019-04-22T22:41:23.925Z,97112.50
2019-04-22T22:44:06.935Z,97109.58
2019-04-22T22:46:44.337Z,97115.90
2019-04-22T22:49:29.411Z,97108.00
2019-04-22T22:52:31.656Z,97105.83
2019-04-22T22:54:38.936Z,97104.05
2019-04-22T22:57:21.388Z,97101.93
2019-04-22T22:59:51.258Z,97097.72
2019-04-22T23:02:22.412Z,97094.62
2019-04-22T23:05:06.170Z,97084.59
2019-04-22T23:07:40.954Z,97080.09
2019-04-22T23:10:14.488Z,97078.75
2019-04-22T23:12:51.593Z,97072.97
2019-04-22T23:15:20.411Z,97068.98
2019-04-22T23:17:39.263Z,97064.93
2019-04-22T23:20:11.767Z,97065.47
2019-04-22T23:23:09.015Z,97065.08
2019-04-22T23:25:44.786Z,97060.14
2019-04-22T23:28:29.605Z,97057.17
2019-04-22T23:31:23.707Z,97052.21
2019-04-22T23:34:07.863Z,97051.84
2019-04-22T23:37:10.317Z,97046.61
2019-04-22T23:39:53.369Z,97046.52
2019-04-22T23:42:41.849Z,97039.86
2019-04-22T23:45:04.066Z,97047.70
2019-04-22T23:47:30.955Z,97042.22
2019-04-22T23:50:18.095Z,97036.09
2019-04-22T23:53:11.508Z,97029.34
2019-04-22T23:55:34.329Z,97030.68
2019-04-22T23:58:09.569Z,97029.79
